This is the latest recevied weather packets stored in our database for station/object KA1JKB. If no packets are shown the sender has not sent any weather packets the latest 10 day(s).
| Time | Temp. | Humidity | Pressure | Rain* | Wind** | Luminosity | Snow |
|---|---|---|---|---|---|---|---|
| 1777388180 | 12.78° C | 87% | 1007.9 hPa | 0 mm | - | 131 W/m² | - |
| 1777387876 | 13.33° C | 88% | 1007.8 hPa | 0 mm | - | 132 W/m² | - |
| 1777387573 | 13.33° C | 89% | 1007.5 hPa | 0 mm | - | 229 W/m² | - |
| 1777386963 | 13.33° C | 89% | 1007.5 hPa | 0 mm | - | 113 W/m² | - |
| 1777386661 | 13.33° C | 89% | 1007.3 hPa | 0 mm | - | 152 W/m² | - |
| 1777386357 | 13.33° C | 91% | 1007.1 hPa | 0 mm | - | 216 W/m² | - |
| 1777386056 | 13.33° C | 91% | 1007.1 hPa | 0 mm | - | 133 W/m² | - |
| 1777385751 | 13.33° C | 90% | 1007.1 hPa | 0 mm | - | 133 W/m² | - |
| 1777385449 | 13.89° C | 90% | 1007 hPa | 0 mm | - | 128 W/m² | - |
| 1777384840 | 14.44° C | 91% | 1006.8 hPa | 0 mm | - | 121 W/m² | - |
| 1777384233 | 14.44° C | 90% | 1006.7 hPa | 0 mm | - | 131 W/m² | - |
| 1777383625 | 14.44° C | 91% | 1006.2 hPa | 0 mm | - | 239 W/m² | - |
| 1777383321 | 14.44° C | 91% | 1006 hPa | 0 mm | - | 162 W/m² | - |
| 1777383018 | 15° C | 90% | 1006 hPa | 0 mm | - | 139 W/m² | - |
| 1777382715 | 15.56° C | 92% | 1005.9 hPa | 0 mm | - | 118 W/m² | - |
| 1777382410 | 15.56° C | 92% | 1005.7 hPa | 0 mm | - | 133 W/m² | - |
| 1777382107 | 16.11° C | 93% | 1005.4 hPa | 0 mm | - | 108 W/m² | - |
| 1777379376 | 15.56° C | 96% | 1005 hPa | 0 mm | - | 137 W/m² | - |
| 1777378767 | 15.56° C | 99% | 1004.8 hPa | 0 mm | - | 124 W/m² | - |
| 1777378160 | 15° C | 99% | 1004.6 hPa | 0 mm | - | 49 W/m² | - |
| 1777377859 | 15° C | 99% | 1004.7 hPa | 0 mm | - | 26 W/m² | - |
| 1777377254 | 15° C | 99% | 1004.4 hPa | 0 mm | - | 20 W/m² | - |
| 1777376952 | 15° C | 99% | 1004.4 hPa | 0 mm | - | 23 W/m² | - |
| 1777376346 | 15° C | 99% | 1004.2 hPa | 0 mm | - | 26 W/m² | - |
| 1777375740 | 15° C | 99% | 1004.1 hPa | 0 mm | - | 13 W/m² | - |
* Rain latest hour (hover to see other rain measurements)
** Current wind speed in m/s (hover to see current wind gust speed)